sensor_id;sensor_type;location;lat;lon;timestamp;pressure;altitude;pressure_sealevel;temperature
70415;BMP280;57837;52.064;113.478;2023-05-14T00:01:31;92431.75;;;14.79
70415;BMP280;57837;52.064;113.478;2023-05-14T00:04:35;92432.72;;;14.76
70415;BMP280;57837;52.064;113.478;2023-05-14T00:07:39;92428.16;;;14.82
70415;BMP280;57837;52.064;113.478;2023-05-14T00:10:43;92438.13;;;14.60
70415;BMP280;57837;52.064;113.478;2023-05-14T00:13:47;92436.00;;;14.58
70415;BMP280;57837;52.064;113.478;2023-05-14T00:16:50;92426.09;;;14.99
70415;BMP280;57837;52.064;113.478;2023-05-14T00:19:54;92413.91;;;15.39
70415;BMP280;57837;52.064;113.478;2023-05-14T00:22:58;92412.44;;;15.44
70415;BMP280;57837;52.064;113.478;2023-05-14T00:26:02;92412.41;;;15.12
70415;BMP280;57837;52.064;113.478;2023-05-14T00:29:06;92406.13;;;15.02
70415;BMP280;57837;52.064;113.478;2023-05-14T00:32:10;92408.88;;;14.91
70415;BMP280;57837;52.064;113.478;2023-05-14T00:35:14;92402.28;;;14.90
70415;BMP280;57837;52.064;113.478;2023-05-14T00:38:18;92398.31;;;15.02
70415;BMP280;57837;52.064;113.478;2023-05-14T00:41:22;92394.09;;;14.99
70415;BMP280;57837;52.064;113.478;2023-05-14T00:44:26;92402.28;;;14.90
70415;BMP280;57837;52.064;113.478;2023-05-14T00:47:30;92399.94;;;15.05
70415;BMP280;57837;52.064;113.478;2023-05-14T00:50:34;92405.78;;;14.74
70415;BMP280;57837;52.064;113.478;2023-05-14T00:53:38;92400.50;;;14.61
70415;BMP280;57837;52.064;113.478;2023-05-14T00:56:44;92400.06;;;14.75
70415;BMP280;57837;52.064;113.478;2023-05-14T00:59:48;92399.00;;;14.65
70415;BMP280;57837;52.064;113.478;2023-05-14T01:02:52;92394.22;;;14.69
70415;BMP280;57837;52.064;113.478;2023-05-14T01:06:21;92397.06;;;14.90
70415;BMP280;57837;52.064;113.478;2023-05-14T01:09:39;92391.69;;;14.82
70415;BMP280;57837;52.064;113.478;2023-05-14T01:12:51;92395.41;;;14.68
70415;BMP280;57837;52.064;113.478;2023-05-14T01:15:59;92398.13;;;14.14
70415;BMP280;57837;52.064;113.478;2023-05-14T01:19:09;92394.00;;;14.00
70415;BMP280;57837;52.064;113.478;2023-05-14T01:22:17;92384.56;;;13.97
70415;BMP280;57837;52.064;113.478;2023-05-14T01:25:20;92379.41;;;13.91
70415;BMP280;57837;52.064;113.478;2023-05-14T01:28:31;92374.69;;;14.20
70415;BMP280;57837;52.064;113.478;2023-05-14T01:31:37;92375.69;;;14.11
70415;BMP280;57837;52.064;113.478;2023-05-14T01:34:43;92380.88;;;13.87
70415;BMP280;57837;52.064;113.478;2023-05-14T01:37:49;92383.50;;;13.87
70415;BMP280;57837;52.064;113.478;2023-05-14T01:40:54;92374.25;;;13.86
70415;BMP280;57837;52.064;113.478;2023-05-14T01:44:04;92370.91;;;13.91
70415;BMP280;57837;52.064;113.478;2023-05-14T01:47:08;92365.00;;;14.15
70415;BMP280;57837;52.064;113.478;2023-05-14T01:50:11;92364.28;;;14.57
70415;BMP280;57837;52.064;113.478;2023-05-14T01:53:15;92356.69;;;14.96
70415;BMP280;57837;52.064;113.478;2023-05-14T01:56:21;92350.03;;;15.14
70415;BMP280;57837;52.064;113.478;2023-05-14T01:59:26;92348.66;;;15.13
70415;BMP280;57837;52.064;113.478;2023-05-14T02:02:31;92348.94;;;14.91
70415;BMP280;57837;52.064;113.478;2023-05-14T02:05:35;92345.50;;;14.45
70415;BMP280;57837;52.064;113.478;2023-05-14T02:08:39;92351.81;;;14.31
70415;BMP280;57837;52.064;113.478;2023-05-14T02:11:43;92353.22;;;14.08
70415;BMP280;57837;52.064;113.478;2023-05-14T02:14:47;92359.09;;;13.90
70415;BMP280;57837;52.064;113.478;2023-05-14T02:17:51;92359.59;;;13.58
70415;BMP280;57837;52.064;113.478;2023-05-14T02:20:56;92364.78;;;13.29
70415;BMP280;57837;52.064;113.478;2023-05-14T02:24:00;92362.72;;;13.16
70415;BMP280;57837;52.064;113.478;2023-05-14T02:27:04;92371.66;;;13.20
70415;BMP280;57837;52.064;113.478;2023-05-14T02:30:09;92386.22;;;12.94
70415;BMP280;57837;52.064;113.478;2023-05-14T02:33:13;92398.41;;;12.58
70415;BMP280;57837;52.064;113.478;2023-05-14T02:36:18;92411.22;;;12.28
70415;BMP280;57837;52.064;113.478;2023-05-14T02:39:21;92406.03;;;12.11
70415;BMP280;57837;52.064;113.478;2023-05-14T02:42:25;92414.56;;;11.95
70415;BMP280;57837;52.064;113.478;2023-05-14T02:45:29;92410.31;;;11.86
70415;BMP280;57837;52.064;113.478;2023-05-14T02:48:33;92422.56;;;11.97
70415;BMP280;57837;52.064;113.478;2023-05-14T02:51:36;92426.34;;;11.79
70415;BMP280;57837;52.064;113.478;2023-05-14T02:54:41;92424.66;;;11.48
70415;BMP280;57837;52.064;113.478;2023-05-14T02:57:45;92433.41;;;11.84
70415;BMP280;57837;52.064;113.478;2023-05-14T03:00:50;92437.16;;;11.83
70415;BMP280;57837;52.064;113.478;2023-05-14T03:03:54;92441.63;;;11.55
70415;BMP280;57837;52.064;113.478;2023-05-14T03:06:58;92440.28;;;10.89
70415;BMP280;57837;52.064;113.478;2023-05-14T03:10:02;92443.13;;;10.54
70415;BMP280;57837;52.064;113.478;2023-05-14T03:13:06;92444.09;;;10.57
70415;BMP280;57837;52.064;113.478;2023-05-14T03:16:10;92441.66;;;10.42
70415;BMP280;57837;52.064;113.478;2023-05-14T03:19:14;92443.78;;;10.12
70415;BMP280;57837;52.064;113.478;2023-05-14T03:22:18;92450.22;;;9.91
70415;BMP280;57837;52.064;113.478;2023-05-14T03:25:21;92455.56;;;9.82
70415;BMP280;57837;52.064;113.478;2023-05-14T03:28:25;92451.53;;;9.55
70415;BMP280;57837;52.064;113.478;2023-05-14T03:31:51;92453.59;;;9.51
70415;BMP280;57837;52.064;113.478;2023-05-14T03:34:55;92454.28;;;9.26
70415;BMP280;57837;52.064;113.478;2023-05-14T03:37:59;92460.31;;;9.02
70415;BMP280;57837;52.064;113.478;2023-05-14T03:41:02;92461.72;;;8.83
70415;BMP280;57837;52.064;113.478;2023-05-14T03:44:05;92459.47;;;8.70
70415;BMP280;57837;52.064;113.478;2023-05-14T03:47:08;92456.63;;;8.54
70415;BMP280;57837;52.064;113.478;2023-05-14T03:50:12;92462.31;;;8.58
70415;BMP280;57837;52.064;113.478;2023-05-14T03:53:16;92475.75;;;8.47
70415;BMP280;57837;52.064;113.478;2023-05-14T03:56:20;92469.75;;;8.35
70415;BMP280;57837;52.064;113.478;2023-05-14T03:59:24;92474.19;;;8.35
70415;BMP280;57837;52.064;113.478;2023-05-14T04:02:27;92465.56;;;8.38
70415;BMP280;57837;52.064;113.478;2023-05-14T04:05:31;92464.91;;;8.58
70415;BMP280;57837;52.064;113.478;2023-05-14T04:08:34;92459.56;;;8.61
70415;BMP280;57837;52.064;113.478;2023-05-14T04:11:37;92464.38;;;8.54
70415;BMP280;57837;52.064;113.478;2023-05-14T04:14:41;92471.59;;;8.50
70415;BMP280;57837;52.064;113.478;2023-05-14T04:17:44;92473.84;;;8.77
70415;BMP280;57837;52.064;113.478;2023-05-14T04:20:47;92464.09;;;8.66
70415;BMP280;57837;52.064;113.478;2023-05-14T04:23:50;92475.75;;;8.47
70415;BMP280;57837;52.064;113.478;2023-05-14T04:26:54;92472.03;;;8.33
70415;BMP280;57837;52.064;113.478;2023-05-14T04:29:57;92470.09;;;8.28
70415;BMP280;57837;52.064;113.478;2023-05-14T04:33:00;92483.19;;;8.40
70415;BMP280;57837;52.064;113.478;2023-05-14T04:36:05;92478.34;;;8.47
70415;BMP280;57837;52.064;113.478;2023-05-14T04:39:08;92476.22;;;8.46
70415;BMP280;57837;52.064;113.478;2023-05-14T04:42:14;92481.28;;;8.25
70415;BMP280;57837;52.064;113.478;2023-05-14T04:45:18;92482.56;;;8.15
70415;BMP280;57837;52.064;113.478;2023-05-14T04:48:22;92486.38;;;8.05
70415;BMP280;57837;52.064;113.478;2023-05-14T04:51:25;92489.53;;;8.00
70415;BMP280;57837;52.064;113.478;2023-05-14T04:54:29;92481.47;;;8.07
70415;BMP280;57837;52.064;113.478;2023-05-14T04:57:32;92486.81;;;8.33
70415;BMP280;57837;52.064;113.478;2023-05-14T05:00:35;92489.63;;;8.50
70415;BMP280;57837;52.064;113.478;2023-05-14T05:03:39;92489.09;;;8.60
70415;BMP280;57837;52.064;113.478;2023-05-14T05:06:42;92485.75;;;8.89
70415;BMP280;57837;52.064;113.478;2023-05-14T05:09:45;92486.44;;;9.30
70415;BMP280;57837;52.064;113.478;2023-05-14T05:12:49;92486.31;;;9.60
70415;BMP280;57837;52.064;113.478;2023-05-14T05:15:52;92493.47;;;9.70
70415;BMP280;57837;52.064;113.478;2023-05-14T05:18:55;92482.63;;;9.92
70415;BMP280;57837;52.064;113.478;2023-05-14T05:21:59;92477.69;;;10.20
70415;BMP280;57837;52.064;113.478;2023-05-14T05:25:03;92470.63;;;10.52
70415;BMP280;57837;52.064;113.478;2023-05-14T05:28:08;92466.44;;;10.60
70415;BMP280;57837;52.064;113.478;2023-05-14T05:31:12;92469.69;;;10.49
70415;BMP280;57837;52.064;113.478;2023-05-14T05:34:19;92461.59;;;10.73
70415;BMP280;57837;52.064;113.478;2023-05-14T05:37:23;92456.50;;;10.95
70415;BMP280;57837;52.064;113.478;2023-05-14T05:40:27;92458.31;;;10.78
70415;BMP280;57837;52.064;113.478;2023-05-14T05:43:30;92462.63;;;10.92
70415;BMP280;57837;52.064;113.478;2023-05-14T05:46:36;92455.22;;;11.22
70415;BMP280;57837;52.064;113.478;2023-05-14T05:49:40;92455.94;;;11.34
70415;BMP280;57837;52.064;113.478;2023-05-14T05:52:44;92453.06;;;11.15
70415;BMP280;57837;52.064;113.478;2023-05-14T05:55:47;92449.47;;;10.96
70415;BMP280;57837;52.064;113.478;2023-05-14T05:58:53;92442.28;;;11.28
70415;BMP280;57837;52.064;113.478;2023-05-14T06:01:57;92437.16;;;11.44
70415;BMP280;57837;52.064;113.478;2023-05-14T06:05:01;92435.28;;;11.45
70415;BMP280;57837;52.064;113.478;2023-05-14T06:08:05;92430.56;;;11.77
70415;BMP280;57837;52.064;113.478;2023-05-14T06:11:09;92428.66;;;12.38
70415;BMP280;57837;52.064;113.478;2023-05-14T06:14:12;92438.03;;;12.69
70415;BMP280;57837;52.064;113.478;2023-05-14T06:17:16;92434.72;;;12.69
70415;BMP280;57837;52.064;113.478;2023-05-14T06:20:20;92424.28;;;12.80
70415;BMP280;57837;52.064;113.478;2023-05-14T06:23:25;92413.16;;;12.91
70415;BMP280;57837;52.064;113.478;2023-05-14T06:26:29;92412.16;;;13.05
70415;BMP280;57837;52.064;113.478;2023-05-14T06:29:33;92412.72;;;13.27
70415;BMP280;57837;52.064;113.478;2023-05-14T06:32:37;92414.78;;;13.40
70415;BMP280;57837;52.064;113.478;2023-05-14T06:35:40;92401.81;;;13.70
70415;BMP280;57837;52.064;113.478;2023-05-14T06:38:44;92378.50;;;13.59
70415;BMP280;57837;52.064;113.478;2023-05-14T06:41:48;92381.81;;;13.59
70415;BMP280;57837;52.064;113.478;2023-05-14T06:44:51;92390.56;;;13.21
70415;BMP280;57837;52.064;113.478;2023-05-14T06:47:55;92401.38;;;12.84
70415;BMP280;57837;52.064;113.478;2023-05-14T06:50:59;92396.03;;;12.65
70415;BMP280;57837;52.064;113.478;2023-05-14T06:54:03;92389.28;;;12.98
70415;BMP280;57837;52.064;113.478;2023-05-14T06:57:07;92375.50;;;13.49
70415;BMP280;57837;52.064;113.478;2023-05-14T07:00:12;92367.22;;;13.81
70415;BMP280;57837;52.064;113.478;2023-05-14T07:03:16;92362.91;;;13.89
70415;BMP280;57837;52.064;113.478;2023-05-14T07:06:21;92353.66;;;13.63
70415;BMP280;57837;52.064;113.478;2023-05-14T07:09:25;92355.53;;;13.33
70415;BMP280;57837;52.064;113.478;2023-05-14T07:12:29;92333.84;;;13.25
70415;BMP280;57837;52.064;113.478;2023-05-14T07:15:32;92323.91;;;13.29
70415;BMP280;57837;52.064;113.478;2023-05-14T07:18:36;92323.44;;;13.31
70415;BMP280;57837;52.064;113.478;2023-05-14T07:21:40;92313.34;;;13.46
70415;BMP280;57837;52.064;113.478;2023-05-14T07:24:44;92305.94;;;13.61
70415;BMP280;57837;52.064;113.478;2023-05-14T07:27:47;92295.66;;;13.93
70415;BMP280;57837;52.064;113.478;2023-05-14T07:30:51;92304.03;;;14.10
70415;BMP280;57837;52.064;113.478;2023-05-14T07:33:55;92299.81;;;13.83
70415;BMP280;57837;52.064;113.478;2023-05-14T07:37:00;92296.16;;;13.67
70415;BMP280;57837;52.064;113.478;2023-05-14T07:40:04;92285.81;;;13.37
70415;BMP280;57837;52.064;113.478;2023-05-14T07:43:09;92287.38;;;13.46
70415;BMP280;57837;52.064;113.478;2023-05-14T07:46:14;92280.00;;;13.25
70415;BMP280;57837;52.064;113.478;2023-05-14T07:49:17;92276.22;;;13.21
70415;BMP280;57837;52.064;113.478;2023-05-14T07:52:22;92279.97;;;12.96
70415;BMP280;57837;52.064;113.478;2023-05-14T07:55:25;92274.22;;;12.73
70415;BMP280;57837;52.064;113.478;2023-05-14T07:58:30;92270.06;;;12.53
70415;BMP280;57837;52.064;113.478;2023-05-14T08:01:34;92269.41;;;12.41
70415;BMP280;57837;52.064;113.478;2023-05-14T08:04:40;92260.81;;;12.17
70415;BMP280;57837;52.064;113.478;2023-05-14T08:07:44;92261.50;;;12.12
70415;BMP280;57837;52.064;113.478;2023-05-14T08:10:47;92261.06;;;12.08
70415;BMP280;57837;52.064;113.478;2023-05-14T08:13:50;92275.19;;;12.18
70415;BMP280;57837;52.064;113.478;2023-05-14T08:16:54;92261.38;;;12.51
70415;BMP280;57837;52.064;113.478;2023-05-14T08:19:57;92263.47;;;12.88
70415;BMP280;57837;52.064;113.478;2023-05-14T08:23:01;92246.03;;;13.18
70415;BMP280;57837;52.064;113.478;2023-05-14T08:26:05;92261.34;;;13.21
70415;BMP280;57837;52.064;113.478;2023-05-14T08:29:09;92268.75;;;13.12
70415;BMP280;57837;52.064;113.478;2023-05-14T08:32:16;92287.88;;;12.79
70415;BMP280;57837;52.064;113.478;2023-05-14T08:35:25;92282.53;;;12.60
70415;BMP280;57837;52.064;113.478;2023-05-14T08:38:29;92255.09;;;12.70
70415;BMP280;57837;52.064;113.478;2023-05-14T08:41:33;92264.72;;;12.81
70415;BMP280;57837;52.064;113.478;2023-05-14T08:44:47;92259.38;;;13.03
70415;BMP280;57837;52.064;113.478;2023-05-14T08:47:55;92252.84;;;13.21
70415;BMP280;57837;52.064;113.478;2023-05-14T08:51:00;92257.72;;;13.36
70415;BMP280;57837;52.064;113.478;2023-05-14T08:54:04;92262.44;;;13.61
70415;BMP280;57837;52.064;113.478;2023-05-14T08:57:09;92263.53;;;13.66
70415;BMP280;57837;52.064;113.478;2023-05-14T09:00:14;92254.28;;;13.70
70415;BMP280;57837;52.064;113.478;2023-05-14T09:03:18;92267.06;;;13.93
70415;BMP280;57837;52.064;113.478;2023-05-14T09:06:23;92272.00;;;13.72
70415;BMP280;57837;52.064;113.478;2023-05-14T09:09:28;92261.00;;;13.85
70415;BMP280;57837;52.064;113.478;2023-05-14T09:12:32;92273.19;;;13.95
70415;BMP280;57837;52.064;113.478;2023-05-14T09:15:37;92254.41;;;14.02
70415;BMP280;57837;52.064;113.478;2023-05-14T09:18:44;92266.38;;;13.92
70415;BMP280;57837;52.064;113.478;2023-05-14T09:21:48;92260.66;;;13.51
70415;BMP280;57837;52.064;113.478;2023-05-14T09:25:07;92264.47;;;13.44
70415;BMP280;57837;52.064;113.478;2023-05-14T09:28:11;92280.22;;;13.27
70415;BMP280;57837;52.064;113.478;2023-05-14T09:31:19;92278.97;;;13.04
70415;BMP280;57837;52.064;113.478;2023-05-14T09:34:26;92271.59;;;12.78
70415;BMP280;57837;52.064;113.478;2023-05-14T09:37:35;92278.25;;;12.68
70415;BMP280;57837;52.064;113.478;2023-05-14T09:40:39;92280.25;;;12.46
70415;BMP280;57837;52.064;113.478;2023-05-14T09:43:43;92284.75;;;12.39
70415;BMP280;57837;52.064;113.478;2023-05-14T09:46:47;92285.28;;;12.27
70415;BMP280;57837;52.064;113.478;2023-05-14T09:49:51;92291.66;;;12.20
70415;BMP280;57837;52.064;113.478;2023-05-14T09:52:55;92296.41;;;12.16
70415;BMP280;57837;52.064;113.478;2023-05-14T09:55:59;92299.50;;;12.09
70415;BMP280;57837;52.064;113.478;2023-05-14T09:59:03;92295.53;;;11.91
70415;BMP280;57837;52.064;113.478;2023-05-14T10:02:19;92307.81;;;11.80
70415;BMP280;57837;52.064;113.478;2023-05-14T10:05:24;92315.81;;;11.76
70415;BMP280;57837;52.064;113.478;2023-05-14T10:08:32;92315.81;;;11.82
70415;BMP280;57837;52.064;113.478;2023-05-14T10:11:37;92325.72;;;11.61
70415;BMP280;57837;52.064;113.478;2023-05-14T10:14:46;92332.53;;;11.53
70415;BMP280;57837;52.064;113.478;2023-05-14T10:17:55;92325.47;;;11.53
70415;BMP280;57837;52.064;113.478;2023-05-14T10:21:25;92332.56;;;11.42
70415;BMP280;57837;52.064;113.478;2023-05-14T10:24:33;92332.06;;;11.32
70415;BMP280;57837;52.064;113.478;2023-05-14T10:27:39;92323.59;;;11.21
70415;BMP280;57837;52.064;113.478;2023-05-14T10:30:45;92331.13;;;11.13
70415;BMP280;57837;52.064;113.478;2023-05-14T10:33:49;92334.38;;;10.97
70415;BMP280;57837;52.064;113.478;2023-05-14T10:36:52;92332.72;;;10.88
70415;BMP280;57837;52.064;113.478;2023-05-14T10:40:01;92336.22;;;10.80
70415;BMP280;57837;52.064;113.478;2023-05-14T10:43:04;92345.13;;;10.73
70415;BMP280;57837;52.064;113.478;2023-05-14T10:46:09;92343.97;;;10.80
70415;BMP280;57837;52.064;113.478;2023-05-14T10:49:13;92343.72;;;10.77
70415;BMP280;57837;52.064;113.478;2023-05-14T10:52:25;92348.63;;;10.70
70415;BMP280;57837;52.064;113.478;2023-05-14T10:55:28;92356.84;;;10.57
70415;BMP280;57837;52.064;113.478;2023-05-14T10:58:37;92360.75;;;10.36
70415;BMP280;57837;52.064;113.478;2023-05-14T11:01:40;92371.25;;;10.27
70415;BMP280;57837;52.064;113.478;2023-05-14T11:04:54;92379.91;;;10.18
70415;BMP280;57837;52.064;113.478;2023-05-14T11:08:03;92378.44;;;10.06
70415;BMP280;57837;52.064;113.478;2023-05-14T11:11:10;92381.44;;;9.99
70415;BMP280;57837;52.064;113.478;2023-05-14T11:14:13;92388.81;;;9.80
70415;BMP280;57837;52.064;113.478;2023-05-14T11:17:16;92404.63;;;9.62
70415;BMP280;57837;52.064;113.478;2023-05-14T11:20:20;92404.28;;;9.49
70415;BMP280;57837;52.064;113.478;2023-05-14T11:23:24;92403.50;;;9.43
70415;BMP280;57837;52.064;113.478;2023-05-14T11:26:28;92412.06;;;9.29
70415;BMP280;57837;52.064;113.478;2023-05-14T11:29:32;92407.50;;;9.18
70415;BMP280;57837;52.064;113.478;2023-05-14T11:32:35;92412.47;;;9.01
70415;BMP280;57837;52.064;113.478;2023-05-14T11:35:39;92429.94;;;8.92
70415;BMP280;57837;52.064;113.478;2023-05-14T11:38:47;92431.53;;;8.69
70415;BMP280;57837;52.064;113.478;2023-05-14T11:41:52;92437.44;;;8.55
70415;BMP280;57837;52.064;113.478;2023-05-14T11:44:55;92435.84;;;8.43
70415;BMP280;57837;52.064;113.478;2023-05-14T11:47:58;92437.09;;;8.32
70415;BMP280;57837;52.064;113.478;2023-05-14T11:51:03;92437.59;;;8.31
70415;BMP280;57837;52.064;113.478;2023-05-14T11:54:06;92453.38;;;8.24
70415;BMP280;57837;52.064;113.478;2023-05-14T11:57:17;92460.78;;;8.16
70415;BMP280;57837;52.064;113.478;2023-05-14T12:00:20;92467.97;;;7.97
70415;BMP280;57837;52.064;113.478;2023-05-14T12:03:26;92483.06;;;7.75
70415;BMP280;57837;52.064;113.478;2023-05-14T12:06:31;92487.75;;;7.62
70415;BMP280;57837;52.064;113.478;2023-05-14T12:09:36;92494.09;;;7.52
70415;BMP280;57837;52.064;113.478;2023-05-14T12:12:47;92492.53;;;7.45
70415;BMP280;57837;52.064;113.478;2023-05-14T12:15:55;92491.63;;;7.34
70415;BMP280;57837;52.064;113.478;2023-05-14T12:18:59;92499.88;;;7.14
70415;BMP280;57837;52.064;113.478;2023-05-14T12:22:03;92501.47;;;7.11
70415;BMP280;57837;52.064;113.478;2023-05-14T12:25:11;92512.94;;;7.10
70415;BMP280;57837;52.064;113.478;2023-05-14T12:28:16;92510.72;;;6.94
70415;BMP280;57837;52.064;113.478;2023-05-14T12:31:30;92527.31;;;6.84
70415;BMP280;57837;52.064;113.478;2023-05-14T12:34:58;92527.81;;;6.64
70415;BMP280;57837;52.064;113.478;2023-05-14T12:38:03;92535.81;;;6.66
70415;BMP280;57837;52.064;113.478;2023-05-14T12:41:06;92537.38;;;6.64
70415;BMP280;57837;52.064;113.478;2023-05-14T12:44:10;92543.84;;;6.50
70415;BMP280;57837;52.064;113.478;2023-05-14T12:47:13;92544.16;;;6.43
70415;BMP280;57837;52.064;113.478;2023-05-14T12:50:17;92547.00;;;6.36
70415;BMP280;57837;52.064;113.478;2023-05-14T12:53:21;92555.31;;;6.22
70415;BMP280;57837;52.064;113.478;2023-05-14T12:56:24;92574.84;;;6.10
70415;BMP280;57837;52.064;113.478;2023-05-14T12:59:29;92550.34;;;6.00
70415;BMP280;57837;52.064;113.478;2023-05-14T13:02:33;92551.31;;;5.93
70415;BMP280;57837;52.064;113.478;2023-05-14T13:05:44;92546.03;;;5.88
70415;BMP280;57837;52.064;113.478;2023-05-14T13:08:48;92550.16;;;5.85
70415;BMP280;57837;52.064;113.478;2023-05-14T13:11:52;92558.28;;;5.84
70415;BMP280;57837;52.064;113.478;2023-05-14T13:14:56;92551.56;;;5.77
70415;BMP280;57837;52.064;113.478;2023-05-14T13:18:00;92550.75;;;5.71
70415;BMP280;57837;52.064;113.478;2023-05-14T13:21:03;92559.16;;;5.72
70415;BMP280;57837;52.064;113.478;2023-05-14T13:24:07;92554.84;;;5.78
70415;BMP280;57837;52.064;113.478;2023-05-14T13:27:11;92562.00;;;5.74
70415;BMP280;57837;52.064;113.478;2023-05-14T13:30:14;92562.56;;;5.78
70415;BMP280;57837;52.064;113.478;2023-05-14T13:33:18;92564.28;;;5.72
70415;BMP280;57837;52.064;113.478;2023-05-14T13:36:21;92558.81;;;5.60
70415;BMP280;57837;52.064;113.478;2023-05-14T13:39:24;92566.38;;;5.55
70415;BMP280;57837;52.064;113.478;2023-05-14T13:42:29;92568.94;;;5.46
70415;BMP280;57837;52.064;113.478;2023-05-14T13:45:33;92565.50;;;5.40
70415;BMP280;57837;52.064;113.478;2023-05-14T13:48:36;92569.63;;;5.37
70415;BMP280;57837;52.064;113.478;2023-05-14T13:51:39;92566.22;;;5.40
70415;BMP280;57837;52.064;113.478;2023-05-14T13:54:42;92579.81;;;5.28
70415;BMP280;57837;52.064;113.478;2023-05-14T13:57:45;92579.09;;;5.18
70415;BMP280;57837;52.064;113.478;2023-05-14T14:00:48;92573.25;;;5.18
70415;BMP280;57837;52.064;113.478;2023-05-14T14:03:52;92570.53;;;5.12
70415;BMP280;57837;52.064;113.478;2023-05-14T14:06:56;92576.22;;;5.07
70415;BMP280;57837;52.064;113.478;2023-05-14T14:09:59;92579.59;;;5.04
70415;BMP280;57837;52.064;113.478;2023-05-14T14:13:04;92585.09;;;4.93
70415;BMP280;57837;52.064;113.478;2023-05-14T14:16:07;92579.41;;;4.89
70415;BMP280;57837;52.064;113.478;2023-05-14T14:19:11;92580.16;;;4.77
70415;BMP280;57837;52.064;113.478;2023-05-14T14:22:17;92572.63;;;4.74
70415;BMP280;57837;52.064;113.478;2023-05-14T14:25:20;92575.31;;;4.70
70415;BMP280;57837;52.064;113.478;2023-05-14T14:28:25;92573.75;;;4.73
70415;BMP280;57837;52.064;113.478;2023-05-14T14:31:28;92577.50;;;4.81
70415;BMP280;57837;52.064;113.478;2023-05-14T14:34:31;92568.38;;;4.80
70415;BMP280;57837;52.064;113.478;2023-05-14T14:37:34;92571.06;;;4.76
70415;BMP280;57837;52.064;113.478;2023-05-14T14:40:37;92568.50;;;4.76
70415;BMP280;57837;52.064;113.478;2023-05-14T14:43:40;92566.06;;;4.73
70415;BMP280;57837;52.064;113.478;2023-05-14T14:46:46;92557.09;;;4.77
70415;BMP280;57837;52.064;113.478;2023-05-14T14:49:49;92569.56;;;4.88
70415;BMP280;57837;52.064;113.478;2023-05-14T14:52:52;92556.88;;;4.84
70415;BMP280;57837;52.064;113.478;2023-05-14T14:55:56;92564.88;;;4.86
70415;BMP280;57837;52.064;113.478;2023-05-14T14:59:00;92560.75;;;4.89
70415;BMP280;57837;52.064;113.478;2023-05-14T15:02:03;92558.53;;;4.78
70415;BMP280;57837;52.064;113.478;2023-05-14T15:05:07;92555.53;;;4.71
70415;BMP280;57837;52.064;113.478;2023-05-14T15:08:10;92548.00;;;4.76
70415;BMP280;57837;52.064;113.478;2023-05-14T15:11:15;92555.38;;;4.74
70415;BMP280;57837;52.064;113.478;2023-05-14T15:14:18;92561.22;;;4.75
70415;BMP280;57837;52.064;113.478;2023-05-14T15:17:21;92551.47;;;4.61
70415;BMP280;57837;52.064;113.478;2023-05-14T15:20:25;92550.00;;;4.50
70415;BMP280;57837;52.064;113.478;2023-05-14T15:23:28;92547.22;;;4.36
70415;BMP280;57837;52.064;113.478;2023-05-14T15:26:31;92544.28;;;4.25
70415;BMP280;57837;52.064;113.478;2023-05-14T15:29:35;92533.97;;;4.15
70415;BMP280;57837;52.064;113.478;2023-05-14T15:32:38;92537.28;;;4.03
70415;BMP280;57837;52.064;113.478;2023-05-14T15:35:41;92532.09;;;3.94
70415;BMP280;57837;52.064;113.478;2023-05-14T15:38:45;92540.19;;;3.93
70415;BMP280;57837;52.064;113.478;2023-05-14T15:41:49;92535.19;;;3.89
70415;BMP280;57837;52.064;113.478;2023-05-14T15:44:52;92536.66;;;3.77
70415;BMP280;57837;52.064;113.478;2023-05-14T15:47:55;92537.50;;;3.62
70415;BMP280;57837;52.064;113.478;2023-05-14T15:50:58;92535.97;;;3.52
70415;BMP280;57837;52.064;113.478;2023-05-14T15:54:01;92540.28;;;3.55
70415;BMP280;57837;52.064;113.478;2023-05-14T15:57:05;92543.84;;;3.57
70415;BMP280;57837;52.064;113.478;2023-05-14T16:00:09;92539.06;;;3.46
70415;BMP280;57837;52.064;113.478;2023-05-14T16:03:13;92546.31;;;3.35
70415;BMP280;57837;52.064;113.478;2023-05-14T16:06:17;92538.75;;;3.32
70415;BMP280;57837;52.064;113.478;2023-05-14T16:09:21;92536.19;;;3.32
70415;BMP280;57837;52.064;113.478;2023-05-14T16:12:24;92533.84;;;3.12
70415;BMP280;57837;52.064;113.478;2023-05-14T16:15:28;92532.31;;;3.02
70415;BMP280;57837;52.064;113.478;2023-05-14T16:18:32;92536.81;;;2.98
70415;BMP280;57837;52.064;113.478;2023-05-14T16:21:36;92539.38;;;2.98
70415;BMP280;57837;52.064;113.478;2023-05-14T16:24:40;92534.97;;;2.86
70415;BMP280;57837;52.064;113.478;2023-05-14T16:27:44;92538.81;;;2.77
70415;BMP280;57837;52.064;113.478;2023-05-14T16:30:48;92536.59;;;2.79
70415;BMP280;57837;52.064;113.478;2023-05-14T16:33:52;92534.97;;;2.86
70415;BMP280;57837;52.064;113.478;2023-05-14T16:36:58;92532.41;;;2.98
70415;BMP280;57837;52.064;113.478;2023-05-14T16:40:01;92524.25;;;2.91
70415;BMP280;57837;52.064;113.478;2023-05-14T16:43:04;92528.81;;;2.83
70415;BMP280;57837;52.064;113.478;2023-05-14T16:46:08;92535.66;;;2.73
70415;BMP280;57837;52.064;113.478;2023-05-14T16:49:11;92531.88;;;2.78
70415;BMP280;57837;52.064;113.478;2023-05-14T16:52:16;92530.03;;;2.78
70415;BMP280;57837;52.064;113.478;2023-05-14T16:55:20;92523.94;;;2.89
70415;BMP280;57837;52.064;113.478;2023-05-14T16:58:24;92530.34;;;2.81
70415;BMP280;57837;52.064;113.478;2023-05-14T17:01:28;92534.84;;;2.76
70415;BMP280;57837;52.064;113.478;2023-05-14T17:04:32;92521.66;;;2.78
70415;BMP280;57837;52.064;113.478;2023-05-14T17:07:40;92529.41;;;2.74
70415;BMP280;57837;52.064;113.478;2023-05-14T17:10:44;92531.78;;;2.69
70415;BMP280;57837;52.064;113.478;2023-05-14T17:13:47;92534.88;;;2.48
70415;BMP280;57837;52.064;113.478;2023-05-14T17:16:53;92530.09;;;2.50
70415;BMP280;57837;52.064;113.478;2023-05-14T17:19:56;92526.00;;;2.52